This is the latest recevied weather packets stored in our database for station/object AC0YE. If no packets are shown the sender has not sent any weather packets the latest 10 day(s).
| Time | Temp. | Humidity | Pressure | Rain* | Wind** | Luminosity | Snow |
|---|---|---|---|---|---|---|---|
| 1777872036 | 11.67° C | 58% | 1006.3 hPa | 0 mm | - | - | - |
| 1777871716 | 11.67° C | 60% | 1006.4 hPa | 0 mm | - | - | - |
| 1777871436 | 11.67° C | 59% | 1006.4 hPa | 0 mm | - | - | - |
| 1777871116 | 12.22° C | 58% | 1006.5 hPa | 0 mm | - | - | - |
| 1777870216 | 12.22° C | 56% | 1006.6 hPa | 0 mm | - | - | - |
| 1777867816 | 13.89° C | 52% | 1007 hPa | 0 mm | - | - | - |
| 1777864516 | 16.11° C | 45% | 1007.4 hPa | 0 mm | - | - | - |
| 1777863916 | 16.67° C | 45% | 1007.4 hPa | 0 mm | - | - | - |
| 1777862416 | 16.67° C | 44% | 1007.2 hPa | 0 mm | - | - | - |
| 1777861816 | 16.67° C | 44% | 1007.1 hPa | 0 mm | - | - | - |
| 1777860916 | 17.22° C | 42% | 1006.9 hPa | 0 mm | - | - | - |
| 1777860316 | 17.78° C | 41% | 1006.7 hPa | 0 mm | - | - | - |
| 1777857316 | 20.56° C | 34% | 1006.5 hPa | 0 mm | - | - | - |
| 1777854616 | 22.78° C | 29% | 1006.3 hPa | 0 mm | - | - | - |
| 1777853716 | 23.33° C | 29% | 1006.3 hPa | 0 mm | - | - | - |
| 1777852816 | 23.33° C | 29% | 1006.3 hPa | 0 mm | - | - | - |
| 1777850736 | 23.89° C | 29% | 1006.3 hPa | 0 mm | - | - | - |
| 1777850416 | 23.89° C | 29% | 1006.3 hPa | 0 mm | - | - | - |
| 1777845355 | 24.44° C | 30% | 1006.1 hPa | 0 mm | - | - | - |
| 1777840815 | 23.89° C | 33% | 1006.4 hPa | 0 mm | - | - | - |
| 1777838417 | 24.44° C | 37% | 1006.6 hPa | 0 mm | - | - | - |
| 1777833917 | 22.78° C | 42% | 1007.5 hPa | 0 mm | - | - | - |
| 1777832417 | 21.67° C | 42% | 1007.6 hPa | 0 mm | - | - | - |
| 1777831217 | 21.11° C | 43% | 1007.9 hPa | 0 mm | - | - | - |
| 1777829117 | 20° C | 46% | 1008.3 hPa | 0 mm | - | - | - |
* Rain latest hour (hover to see other rain measurements)
** Current wind speed in m/s (hover to see current wind gust speed)